9°C Temp
5°C Dewpoint
76% Humidity
Temperature
23 KM/H
14 MPH
12 KTS
300°
West North
West

Wind Speed
Mostly Cloudy
Conditions
Pressure 1014.92 (hPa) - 29.97 (in)
Visibility 6.2 (mi) - 10.0 (km)

Current Conditions
EKCH
Location 55(km)
Metar :EKCH 261320Z AUTO 30012KT 9999 BKN023/// 09/05 Q1015 NOSIG
Thu 26th November 15:20 pm

Airport
  Metar Aviation API Data Provided by https://www.checkwx.com/ PHP scripts by weather34.com ©2020